sensor_id;sensor_type;location;lat;lon;timestamp;P1;durP1;ratioP1;P2;durP2;ratioP2
70303;SDS011;57712;48.752;11.348;2024-02-14T00:02:15;12.68;;;4.40;;
70303;SDS011;57712;48.752;11.348;2024-02-14T00:04:41;13.37;;;4.50;;
70303;SDS011;57712;48.752;11.348;2024-02-14T00:07:08;12.13;;;4.28;;
70303;SDS011;57712;48.752;11.348;2024-02-14T00:09:35;11.10;;;3.90;;
70303;SDS011;57712;48.752;11.348;2024-02-14T00:12:02;11.52;;;4.05;;
70303;SDS011;57712;48.752;11.348;2024-02-14T00:14:29;9.52;;;3.75;;
70303;SDS011;57712;48.752;11.348;2024-02-14T00:16:55;10.40;;;3.83;;
70303;SDS011;57712;48.752;11.348;2024-02-14T00:19:25;10.52;;;3.95;;
70303;SDS011;57712;48.752;11.348;2024-02-14T00:21:52;9.85;;;3.95;;
70303;SDS011;57712;48.752;11.348;2024-02-14T00:24:19;9.02;;;3.22;;
70303;SDS011;57712;48.752;11.348;2024-02-14T00:26:45;10.13;;;3.60;;
70303;SDS011;57712;48.752;11.348;2024-02-14T00:29:12;7.50;;;3.40;;
70303;SDS011;57712;48.752;11.348;2024-02-14T00:31:39;10.32;;;3.40;;
70303;SDS011;57712;48.752;11.348;2024-02-14T00:34:05;7.70;;;3.30;;
70303;SDS011;57712;48.752;11.348;2024-02-14T00:36:32;8.60;;;3.78;;
70303;SDS011;57712;48.752;11.348;2024-02-14T00:38:59;9.50;;;3.55;;
70303;SDS011;57712;48.752;11.348;2024-02-14T00:41:28;8.17;;;3.00;;
70303;SDS011;57712;48.752;11.348;2024-02-14T00:43:56;8.88;;;3.03;;
70303;SDS011;57712;48.752;11.348;2024-02-14T00:46:23;7.50;;;2.95;;
70303;SDS011;57712;48.752;11.348;2024-02-14T00:48:49;6.20;;;2.88;;
70303;SDS011;57712;48.752;11.348;2024-02-14T00:51:16;7.50;;;2.40;;
70303;SDS011;57712;48.752;11.348;2024-02-14T00:53:43;8.50;;;3.00;;
70303;SDS011;57712;48.752;11.348;2024-02-14T00:56:10;8.30;;;3.15;;
70303;SDS011;57712;48.752;11.348;2024-02-14T00:58:37;9.65;;;3.53;;
70303;SDS011;57712;48.752;11.348;2024-02-14T01:01:03;10.15;;;3.33;;
70303;SDS011;57712;48.752;11.348;2024-02-14T01:03:30;8.90;;;3.35;;
70303;SDS011;57712;48.752;11.348;2024-02-14T01:05:57;8.70;;;2.80;;
70303;SDS011;57712;48.752;11.348;2024-02-14T01:08:24;7.88;;;2.85;;
70303;SDS011;57712;48.752;11.348;2024-02-14T01:10:51;7.30;;;3.15;;
70303;SDS011;57712;48.752;11.348;2024-02-14T01:13:18;8.02;;;3.05;;
70303;SDS011;57712;48.752;11.348;2024-02-14T01:15:45;7.10;;;2.72;;
70303;SDS011;57712;48.752;11.348;2024-02-14T01:18:11;7.83;;;2.60;;
70303;SDS011;57712;48.752;11.348;2024-02-14T01:20:38;6.60;;;2.50;;
70303;SDS011;57712;48.752;11.348;2024-02-14T01:23:05;5.97;;;2.22;;
70303;SDS011;57712;48.752;11.348;2024-02-14T01:25:32;7.05;;;2.45;;
70303;SDS011;57712;48.752;11.348;2024-02-14T01:27:59;6.32;;;2.10;;
70303;SDS011;57712;48.752;11.348;2024-02-14T01:30:26;6.13;;;2.03;;
70303;SDS011;57712;48.752;11.348;2024-02-14T01:32:53;6.88;;;2.58;;
70303;SDS011;57712;48.752;11.348;2024-02-14T01:35:20;6.05;;;2.38;;
70303;SDS011;57712;48.752;11.348;2024-02-14T01:37:47;6.53;;;2.45;;
70303;SDS011;57712;48.752;11.348;2024-02-14T01:40:14;7.60;;;2.60;;
70303;SDS011;57712;48.752;11.348;2024-02-14T01:42:41;8.43;;;2.50;;
70303;SDS011;57712;48.752;11.348;2024-02-14T01:45:07;7.88;;;2.50;;
70303;SDS011;57712;48.752;11.348;2024-02-14T01:47:34;7.18;;;2.90;;
70303;SDS011;57712;48.752;11.348;2024-02-14T01:50:01;6.18;;;2.58;;
70303;SDS011;57712;48.752;11.348;2024-02-14T01:52:28;8.23;;;2.78;;
70303;SDS011;57712;48.752;11.348;2024-02-14T01:54:55;7.07;;;2.60;;
70303;SDS011;57712;48.752;11.348;2024-02-14T01:57:22;7.47;;;3.10;;
70303;SDS011;57712;48.752;11.348;2024-02-14T01:59:50;6.90;;;2.40;;
70303;SDS011;57712;48.752;11.348;2024-02-14T02:02:19;8.13;;;2.70;;
70303;SDS011;57712;48.752;11.348;2024-02-14T02:04:46;8.38;;;2.58;;
70303;SDS011;57712;48.752;11.348;2024-02-14T02:07:13;8.60;;;2.60;;
70303;SDS011;57712;48.752;11.348;2024-02-14T02:09:40;7.18;;;2.50;;
70303;SDS011;57712;48.752;11.348;2024-02-14T02:12:06;6.78;;;2.30;;
70303;SDS011;57712;48.752;11.348;2024-02-14T02:14:34;7.28;;;2.50;;
70303;SDS011;57712;48.752;11.348;2024-02-14T02:17:01;7.20;;;2.28;;
70303;SDS011;57712;48.752;11.348;2024-02-14T02:19:31;5.80;;;2.47;;
70303;SDS011;57712;48.752;11.348;2024-02-14T02:22:00;6.95;;;2.40;;
70303;SDS011;57712;48.752;11.348;2024-02-14T02:24:27;7.88;;;2.63;;
70303;SDS011;57712;48.752;11.348;2024-02-14T02:26:54;5.45;;;2.28;;
70303;SDS011;57712;48.752;11.348;2024-02-14T02:29:21;8.68;;;3.13;;
70303;SDS011;57712;48.752;11.348;2024-02-14T02:31:48;7.47;;;2.30;;
70303;SDS011;57712;48.752;11.348;2024-02-14T02:34:15;7.45;;;2.45;;
70303;SDS011;57712;48.752;11.348;2024-02-14T02:36:43;7.38;;;2.80;;
70303;SDS011;57712;48.752;11.348;2024-02-14T02:39:11;7.93;;;3.00;;
70303;SDS011;57712;48.752;11.348;2024-02-14T02:41:38;7.07;;;3.00;;
70303;SDS011;57712;48.752;11.348;2024-02-14T02:44:05;6.80;;;2.80;;
70303;SDS011;57712;48.752;11.348;2024-02-14T02:46:34;8.18;;;3.20;;
70303;SDS011;57712;48.752;11.348;2024-02-14T02:49:02;8.65;;;4.03;;
70303;SDS011;57712;48.752;11.348;2024-02-14T02:51:29;7.20;;;3.20;;
70303;SDS011;57712;48.752;11.348;2024-02-14T02:53:56;8.35;;;4.38;;
70303;SDS011;57712;48.752;11.348;2024-02-14T02:56:23;7.30;;;3.40;;
70303;SDS011;57712;48.752;11.348;2024-02-14T02:58:54;9.10;;;3.80;;
70303;SDS011;57712;48.752;11.348;2024-02-14T03:01:22;9.40;;;4.55;;
70303;SDS011;57712;48.752;11.348;2024-02-14T03:03:51;9.13;;;4.30;;
70303;SDS011;57712;48.752;11.348;2024-02-14T03:06:18;9.63;;;4.53;;
70303;SDS011;57712;48.752;11.348;2024-02-14T03:08:45;10.50;;;4.20;;
70303;SDS011;57712;48.752;11.348;2024-02-14T03:11:11;11.43;;;4.70;;
70303;SDS011;57712;48.752;11.348;2024-02-14T03:13:38;9.32;;;3.97;;
70303;SDS011;57712;48.752;11.348;2024-02-14T03:16:07;8.57;;;3.60;;
70303;SDS011;57712;48.752;11.348;2024-02-14T03:18:33;8.73;;;3.58;;
70303;SDS011;57712;48.752;11.348;2024-02-14T03:21:00;12.23;;;4.40;;
70303;SDS011;57712;48.752;11.348;2024-02-14T03:23:27;7.45;;;3.60;;
70303;SDS011;57712;48.752;11.348;2024-02-14T03:25:54;8.77;;;3.65;;
70303;SDS011;57712;48.752;11.348;2024-02-14T03:28:23;8.77;;;3.47;;
70303;SDS011;57712;48.752;11.348;2024-02-14T03:30:51;9.60;;;3.78;;
70303;SDS011;57712;48.752;11.348;2024-02-14T03:33:18;7.80;;;3.37;;
70303;SDS011;57712;48.752;11.348;2024-02-14T03:35:45;8.82;;;3.40;;
70303;SDS011;57712;48.752;11.348;2024-02-14T03:38:13;10.32;;;3.53;;
70303;SDS011;57712;48.752;11.348;2024-02-14T03:40:42;8.43;;;2.97;;
70303;SDS011;57712;48.752;11.348;2024-02-14T03:43:12;9.45;;;3.63;;
70303;SDS011;57712;48.752;11.348;2024-02-14T03:45:38;7.83;;;3.23;;
70303;SDS011;57712;48.752;11.348;2024-02-14T03:48:05;8.55;;;3.20;;
70303;SDS011;57712;48.752;11.348;2024-02-14T03:50:32;7.45;;;3.17;;
70303;SDS011;57712;48.752;11.348;2024-02-14T03:52:59;7.82;;;3.28;;
70303;SDS011;57712;48.752;11.348;2024-02-14T03:55:25;8.70;;;2.80;;
70303;SDS011;57712;48.752;11.348;2024-02-14T03:57:52;9.10;;;3.00;;
70303;SDS011;57712;48.752;11.348;2024-02-14T04:00:19;7.40;;;2.78;;
70303;SDS011;57712;48.752;11.348;2024-02-14T04:02:48;7.05;;;3.45;;
70303;SDS011;57712;48.752;11.348;2024-02-14T04:05:17;13.82;;;3.45;;
70303;SDS011;57712;48.752;11.348;2024-02-14T04:07:43;9.15;;;4.28;;
70303;SDS011;57712;48.752;11.348;2024-02-14T04:10:15;9.70;;;4.17;;
70303;SDS011;57712;48.752;11.348;2024-02-14T04:12:42;8.88;;;4.00;;
70303;SDS011;57712;48.752;11.348;2024-02-14T04:15:09;8.77;;;4.05;;
70303;SDS011;57712;48.752;11.348;2024-02-14T04:17:35;9.35;;;3.90;;
70303;SDS011;57712;48.752;11.348;2024-02-14T04:20:03;9.30;;;4.55;;
70303;SDS011;57712;48.752;11.348;2024-02-14T04:22:30;8.87;;;4.53;;
70303;SDS011;57712;48.752;11.348;2024-02-14T04:24:57;10.43;;;4.13;;
70303;SDS011;57712;48.752;11.348;2024-02-14T04:27:24;11.75;;;4.90;;
70303;SDS011;57712;48.752;11.348;2024-02-14T04:29:50;10.30;;;4.47;;
70303;SDS011;57712;48.752;11.348;2024-02-14T04:32:17;10.73;;;4.85;;
70303;SDS011;57712;48.752;11.348;2024-02-14T04:34:45;9.47;;;4.70;;
70303;SDS011;57712;48.752;11.348;2024-02-14T04:37:12;9.00;;;5.05;;
70303;SDS011;57712;48.752;11.348;2024-02-14T04:39:40;10.45;;;5.13;;
70303;SDS011;57712;48.752;11.348;2024-02-14T04:42:07;11.73;;;5.55;;
70303;SDS011;57712;48.752;11.348;2024-02-14T04:44:34;11.18;;;6.45;;
70303;SDS011;57712;48.752;11.348;2024-02-14T04:47:01;10.80;;;5.37;;
70303;SDS011;57712;48.752;11.348;2024-02-14T04:49:28;10.50;;;6.22;;
70303;SDS011;57712;48.752;11.348;2024-02-14T04:51:57;10.55;;;5.40;;
70303;SDS011;57712;48.752;11.348;2024-02-14T04:54:25;10.38;;;4.90;;
70303;SDS011;57712;48.752;11.348;2024-02-14T04:56:53;12.90;;;5.68;;
70303;SDS011;57712;48.752;11.348;2024-02-14T04:59:24;10.43;;;5.43;;
70303;SDS011;57712;48.752;11.348;2024-02-14T05:01:52;9.18;;;5.00;;
70303;SDS011;57712;48.752;11.348;2024-02-14T05:04:21;10.43;;;5.97;;
70303;SDS011;57712;48.752;11.348;2024-02-14T05:06:49;10.90;;;6.47;;
70303;SDS011;57712;48.752;11.348;2024-02-14T05:09:17;11.25;;;6.18;;
70303;SDS011;57712;48.752;11.348;2024-02-14T05:11:44;13.53;;;6.10;;
70303;SDS011;57712;48.752;11.348;2024-02-14T05:14:11;12.50;;;6.22;;
70303;SDS011;57712;48.752;11.348;2024-02-14T05:16:37;12.52;;;7.18;;
70303;SDS011;57712;48.752;11.348;2024-02-14T05:19:04;12.15;;;7.10;;
70303;SDS011;57712;48.752;11.348;2024-02-14T05:21:31;14.25;;;7.00;;
70303;SDS011;57712;48.752;11.348;2024-02-14T05:23:58;11.93;;;6.57;;
70303;SDS011;57712;48.752;11.348;2024-02-14T05:26:24;12.45;;;6.40;;
70303;SDS011;57712;48.752;11.348;2024-02-14T05:28:51;13.07;;;7.10;;
70303;SDS011;57712;48.752;11.348;2024-02-14T05:31:18;10.23;;;5.78;;
70303;SDS011;57712;48.752;11.348;2024-02-14T05:33:44;10.32;;;5.60;;
70303;SDS011;57712;48.752;11.348;2024-02-14T05:36:11;10.87;;;5.67;;
70303;SDS011;57712;48.752;11.348;2024-02-14T05:38:38;10.35;;;5.75;;
70303;SDS011;57712;48.752;11.348;2024-02-14T05:41:05;10.27;;;5.38;;
70303;SDS011;57712;48.752;11.348;2024-02-14T05:43:34;11.93;;;6.15;;
70303;SDS011;57712;48.752;11.348;2024-02-14T05:46:01;13.77;;;6.40;;
70303;SDS011;57712;48.752;11.348;2024-02-14T05:48:27;11.93;;;5.30;;
70303;SDS011;57712;48.752;11.348;2024-02-14T05:50:54;12.50;;;6.15;;
70303;SDS011;57712;48.752;11.348;2024-02-14T05:53:21;11.32;;;5.40;;
70303;SDS011;57712;48.752;11.348;2024-02-14T05:55:48;12.18;;;5.80;;
70303;SDS011;57712;48.752;11.348;2024-02-14T05:58:15;11.55;;;6.05;;
70303;SDS011;57712;48.752;11.348;2024-02-14T06:00:42;10.73;;;5.90;;
70303;SDS011;57712;48.752;11.348;2024-02-14T06:03:08;11.80;;;5.82;;
70303;SDS011;57712;48.752;11.348;2024-02-14T06:05:35;12.13;;;5.90;;
70303;SDS011;57712;48.752;11.348;2024-02-14T06:08:02;11.45;;;5.82;;
70303;SDS011;57712;48.752;11.348;2024-02-14T06:10:29;11.23;;;5.72;;
70303;SDS011;57712;48.752;11.348;2024-02-14T06:12:56;11.33;;;6.27;;
70303;SDS011;57712;48.752;11.348;2024-02-14T06:15:23;13.18;;;7.15;;
70303;SDS011;57712;48.752;11.348;2024-02-14T06:17:50;17.08;;;8.35;;
70303;SDS011;57712;48.752;11.348;2024-02-14T06:20:17;16.65;;;8.40;;
70303;SDS011;57712;48.752;11.348;2024-02-14T06:22:44;15.20;;;6.88;;
70303;SDS011;57712;48.752;11.348;2024-02-14T06:25:22;10.27;;;5.77;;
70303;SDS011;57712;48.752;11.348;2024-02-14T06:27:49;13.45;;;6.22;;
70303;SDS011;57712;48.752;11.348;2024-02-14T06:30:16;11.88;;;5.72;;
70303;SDS011;57712;48.752;11.348;2024-02-14T06:32:44;11.15;;;5.47;;
70303;SDS011;57712;48.752;11.348;2024-02-14T06:35:11;11.77;;;6.32;;
70303;SDS011;57712;48.752;11.348;2024-02-14T06:37:38;12.87;;;7.07;;
70303;SDS011;57712;48.752;11.348;2024-02-14T06:40:18;10.95;;;6.10;;
70303;SDS011;57712;48.752;11.348;2024-02-14T06:42:44;11.32;;;6.13;;
70303;SDS011;57712;48.752;11.348;2024-02-14T06:45:11;13.00;;;6.78;;
70303;SDS011;57712;48.752;11.348;2024-02-14T06:47:38;10.55;;;6.35;;
70303;SDS011;57712;48.752;11.348;2024-02-14T06:50:05;11.23;;;6.40;;
70303;SDS011;57712;48.752;11.348;2024-02-14T06:52:36;10.93;;;5.75;;
70303;SDS011;57712;48.752;11.348;2024-02-14T06:55:02;13.15;;;6.45;;
70303;SDS011;57712;48.752;11.348;2024-02-14T06:57:30;12.68;;;6.32;;
70303;SDS011;57712;48.752;11.348;2024-02-14T06:59:56;13.48;;;6.13;;
70303;SDS011;57712;48.752;11.348;2024-02-14T07:02:23;12.93;;;5.87;;
70303;SDS011;57712;48.752;11.348;2024-02-14T07:04:54;11.60;;;6.60;;
70303;SDS011;57712;48.752;11.348;2024-02-14T07:07:21;12.80;;;6.45;;
70303;SDS011;57712;48.752;11.348;2024-02-14T07:09:48;12.40;;;6.93;;
70303;SDS011;57712;48.752;11.348;2024-02-14T07:12:14;12.93;;;6.50;;
70303;SDS011;57712;48.752;11.348;2024-02-14T07:14:41;11.17;;;5.63;;
70303;SDS011;57712;48.752;11.348;2024-02-14T07:17:08;12.85;;;6.38;;
70303;SDS011;57712;48.752;11.348;2024-02-14T07:19:35;12.90;;;6.78;;
70303;SDS011;57712;48.752;11.348;2024-02-14T07:22:01;13.27;;;6.80;;
70303;SDS011;57712;48.752;11.348;2024-02-14T07:24:28;15.90;;;7.20;;
70303;SDS011;57712;48.752;11.348;2024-02-14T07:26:55;18.97;;;8.27;;
70303;SDS011;57712;48.752;11.348;2024-02-14T07:29:23;23.80;;;9.88;;
70303;SDS011;57712;48.752;11.348;2024-02-14T07:31:50;20.40;;;10.50;;
70303;SDS011;57712;48.752;11.348;2024-02-14T07:34:16;18.50;;;10.18;;
70303;SDS011;57712;48.752;11.348;2024-02-14T07:36:43;18.58;;;10.23;;
70303;SDS011;57712;48.752;11.348;2024-02-14T07:39:12;22.37;;;10.33;;
70303;SDS011;57712;48.752;11.348;2024-02-14T07:41:39;19.15;;;11.32;;
70303;SDS011;57712;48.752;11.348;2024-02-14T07:44:06;18.73;;;10.50;;
70303;SDS011;57712;48.752;11.348;2024-02-14T07:46:33;21.92;;;10.07;;
70303;SDS011;57712;48.752;11.348;2024-02-14T07:48:59;16.08;;;8.82;;
70303;SDS011;57712;48.752;11.348;2024-02-14T07:51:26;13.07;;;7.87;;
70303;SDS011;57712;48.752;11.348;2024-02-14T07:53:55;17.50;;;9.00;;
70303;SDS011;57712;48.752;11.348;2024-02-14T07:56:22;15.35;;;9.20;;
70303;SDS011;57712;48.752;11.348;2024-02-14T07:58:48;16.58;;;8.98;;
70303;SDS011;57712;48.752;11.348;2024-02-14T08:01:16;11.75;;;7.30;;
70303;SDS011;57712;48.752;11.348;2024-02-14T08:03:43;14.13;;;7.70;;
70303;SDS011;57712;48.752;11.348;2024-02-14T08:06:13;12.85;;;6.80;;
70303;SDS011;57712;48.752;11.348;2024-02-14T08:08:40;10.98;;;6.22;;
70303;SDS011;57712;48.752;11.348;2024-02-14T08:11:07;11.13;;;6.45;;
70303;SDS011;57712;48.752;11.348;2024-02-14T08:13:33;12.10;;;6.65;;
70303;SDS011;57712;48.752;11.348;2024-02-14T08:16:00;10.90;;;5.80;;
70303;SDS011;57712;48.752;11.348;2024-02-14T08:18:27;11.65;;;6.00;;
70303;SDS011;57712;48.752;11.348;2024-02-14T08:20:54;11.10;;;6.10;;
70303;SDS011;57712;48.752;11.348;2024-02-14T08:23:21;11.68;;;6.10;;
70303;SDS011;57712;48.752;11.348;2024-02-14T08:25:47;13.23;;;6.47;;
70303;SDS011;57712;48.752;11.348;2024-02-14T08:28:15;12.83;;;5.37;;
70303;SDS011;57712;48.752;11.348;2024-02-14T08:30:45;10.40;;;5.57;;
70303;SDS011;57712;48.752;11.348;2024-02-14T08:33:11;14.93;;;6.13;;
70303;SDS011;57712;48.752;11.348;2024-02-14T08:35:38;13.50;;;5.85;;
70303;SDS011;57712;48.752;11.348;2024-02-14T08:38:09;11.57;;;5.72;;
70303;SDS011;57712;48.752;11.348;2024-02-14T08:40:36;10.40;;;5.70;;
70303;SDS011;57712;48.752;11.348;2024-02-14T08:43:03;9.65;;;4.95;;
70303;SDS011;57712;48.752;11.348;2024-02-14T08:45:31;12.00;;;5.75;;
70303;SDS011;57712;48.752;11.348;2024-02-14T08:47:58;9.38;;;5.10;;
70303;SDS011;57712;48.752;11.348;2024-02-14T08:50:25;12.48;;;6.20;;
70303;SDS011;57712;48.752;11.348;2024-02-14T08:52:51;9.33;;;5.03;;
70303;SDS011;57712;48.752;11.348;2024-02-14T08:55:18;9.88;;;4.97;;
70303;SDS011;57712;48.752;11.348;2024-02-14T08:57:45;8.20;;;4.63;;
70303;SDS011;57712;48.752;11.348;2024-02-14T09:00:14;10.98;;;4.70;;
70303;SDS011;57712;48.752;11.348;2024-02-14T09:02:46;8.77;;;5.00;;
70303;SDS011;57712;48.752;11.348;2024-02-14T09:05:13;10.13;;;5.03;;
70303;SDS011;57712;48.752;11.348;2024-02-14T09:07:40;8.40;;;5.00;;
70303;SDS011;57712;48.752;11.348;2024-02-14T09:10:08;17.38;;;7.55;;
70303;SDS011;57712;48.752;11.348;2024-02-14T09:12:36;14.82;;;6.20;;
70303;SDS011;57712;48.752;11.348;2024-02-14T09:15:04;21.00;;;15.35;;
70303;SDS011;57712;48.752;11.348;2024-02-14T09:17:31;10.80;;;5.67;;
70303;SDS011;57712;48.752;11.348;2024-02-14T09:19:58;15.13;;;13.52;;
70303;SDS011;57712;48.752;11.348;2024-02-14T09:22:25;12.38;;;9.38;;
70303;SDS011;57712;48.752;11.348;2024-02-14T09:24:52;8.85;;;5.60;;
70303;SDS011;57712;48.752;11.348;2024-02-14T09:27:19;9.88;;;4.20;;
70303;SDS011;57712;48.752;11.348;2024-02-14T09:29:46;9.23;;;4.87;;
70303;SDS011;57712;48.752;11.348;2024-02-14T09:32:13;8.43;;;4.53;;
70303;SDS011;57712;48.752;11.348;2024-02-14T09:34:40;9.07;;;4.47;;
70303;SDS011;57712;48.752;11.348;2024-02-14T09:37:07;11.05;;;5.70;;
70303;SDS011;57712;48.752;11.348;2024-02-14T09:39:33;11.63;;;6.00;;
70303;SDS011;57712;48.752;11.348;2024-02-14T09:42:05;13.97;;;6.47;;
70303;SDS011;57712;48.752;11.348;2024-02-14T09:44:36;11.00;;;5.72;;
70303;SDS011;57712;48.752;11.348;2024-02-14T09:47:05;13.23;;;7.35;;
70303;SDS011;57712;48.752;11.348;2024-02-14T09:49:32;9.02;;;5.18;;
70303;SDS011;57712;48.752;11.348;2024-02-14T09:52:01;10.52;;;6.20;;
70303;SDS011;57712;48.752;11.348;2024-02-14T09:54:30;12.20;;;6.00;;
70303;SDS011;57712;48.752;11.348;2024-02-14T09:57:01;11.85;;;6.53;;
70303;SDS011;57712;48.752;11.348;2024-02-14T09:59:29;11.68;;;5.47;;
70303;SDS011;57712;48.752;11.348;2024-02-14T10:01:56;8.43;;;5.00;;
70303;SDS011;57712;48.752;11.348;2024-02-14T10:04:23;8.57;;;5.20;;
70303;SDS011;57712;48.752;11.348;2024-02-14T10:06:52;10.03;;;4.03;;
70303;SDS011;57712;48.752;11.348;2024-02-14T10:09:22;11.18;;;4.45;;
70303;SDS011;57712;48.752;11.348;2024-02-14T10:11:49;7.30;;;3.80;;
70303;SDS011;57712;48.752;11.348;2024-02-14T10:14:16;6.53;;;3.38;;
70303;SDS011;57712;48.752;11.348;2024-02-14T10:16:42;6.85;;;2.70;;
70303;SDS011;57712;48.752;11.348;2024-02-14T10:19:15;8.30;;;3.37;;
70303;SDS011;57712;48.752;11.348;2024-02-14T10:21:43;6.90;;;2.47;;
70303;SDS011;57712;48.752;11.348;2024-02-14T10:24:21;6.55;;;2.67;;
70303;SDS011;57712;48.752;11.348;2024-02-14T10:26:47;6.90;;;2.70;;
70303;SDS011;57712;48.752;11.348;2024-02-14T10:29:15;7.90;;;3.03;;
70303;SDS011;57712;48.752;11.348;2024-02-14T10:31:41;7.17;;;3.17;;
70303;SDS011;57712;48.752;11.348;2024-02-14T10:34:08;6.80;;;2.95;;
70303;SDS011;57712;48.752;11.348;2024-02-14T10:36:37;7.50;;;2.63;;
70303;SDS011;57712;48.752;11.348;2024-02-14T10:39:06;7.20;;;2.30;;
70303;SDS011;57712;48.752;11.348;2024-02-14T10:41:36;5.65;;;1.80;;
70303;SDS011;57712;48.752;11.348;2024-02-14T10:44:03;6.27;;;1.67;;
70303;SDS011;57712;48.752;11.348;2024-02-14T10:46:35;5.30;;;1.98;;
70303;SDS011;57712;48.752;11.348;2024-02-14T10:49:04;6.25;;;1.50;;
70303;SDS011;57712;48.752;11.348;2024-02-14T10:51:32;6.13;;;1.92;;
70303;SDS011;57712;48.752;11.348;2024-02-14T10:54:03;6.47;;;2.38;;
70303;SDS011;57712;48.752;11.348;2024-02-14T10:56:37;6.33;;;2.10;;
70303;SDS011;57712;48.752;11.348;2024-02-14T10:59:09;6.10;;;1.95;;
70303;SDS011;57712;48.752;11.348;2024-02-14T11:01:39;7.13;;;2.53;;
70303;SDS011;57712;48.752;11.348;2024-02-14T11:04:08;7.75;;;2.42;;
70303;SDS011;57712;48.752;11.348;2024-02-14T11:06:47;6.30;;;2.20;;
70303;SDS011;57712;48.752;11.348;2024-02-14T11:09:15;6.27;;;2.37;;
70303;SDS011;57712;48.752;11.348;2024-02-14T11:11:42;7.07;;;2.15;;
70303;SDS011;57712;48.752;11.348;2024-02-14T11:14:10;6.30;;;2.03;;
70303;SDS011;57712;48.752;11.348;2024-02-14T11:16:44;5.50;;;1.80;;
70303;SDS011;57712;48.752;11.348;2024-02-14T11:19:14;7.40;;;2.10;;
70303;SDS011;57712;48.752;11.348;2024-02-14T11:21:46;9.87;;;3.00;;
70303;SDS011;57712;48.752;11.348;2024-02-14T11:24:15;5.85;;;1.98;;
70303;SDS011;57712;48.752;11.348;2024-02-14T11:26:46;5.53;;;1.88;;
70303;SDS011;57712;48.752;11.348;2024-02-14T11:29:20;6.00;;;1.85;;
70303;SDS011;57712;48.752;11.348;2024-02-14T11:31:58;5.43;;;2.30;;
70303;SDS011;57712;48.752;11.348;2024-02-14T11:34:28;6.20;;;2.17;;
70303;SDS011;57712;48.752;11.348;2024-02-14T11:37:00;6.55;;;2.05;;
70303;SDS011;57712;48.752;11.348;2024-02-14T11:39:27;6.43;;;2.38;;
70303;SDS011;57712;48.752;11.348;2024-02-14T11:41:56;5.95;;;2.13;;
70303;SDS011;57712;48.752;11.348;2024-02-14T11:44:24;6.88;;;2.53;;
70303;SDS011;57712;48.752;11.348;2024-02-14T11:46:52;6.93;;;2.00;;
70303;SDS011;57712;48.752;11.348;2024-02-14T11:49:19;5.50;;;1.90;;
70303;SDS011;57712;48.752;11.348;2024-02-14T11:51:46;6.95;;;2.60;;
70303;SDS011;57712;48.752;11.348;2024-02-14T11:54:12;7.22;;;2.22;;
70303;SDS011;57712;48.752;11.348;2024-02-14T11:56:39;7.88;;;1.95;;
70303;SDS011;57712;48.752;11.348;2024-02-14T11:59:07;6.37;;;2.33;;
70303;SDS011;57712;48.752;11.348;2024-02-14T12:01:36;6.47;;;1.90;;
70303;SDS011;57712;48.752;11.348;2024-02-14T12:04:05;6.15;;;2.40;;
70303;SDS011;57712;48.752;11.348;2024-02-14T12:06:36;5.65;;;2.22;;
70303;SDS011;57712;48.752;11.348;2024-02-14T12:09:04;5.60;;;2.20;;
70303;SDS011;57712;48.752;11.348;2024-02-14T12:11:32;7.47;;;2.53;;
70303;SDS011;57712;48.752;11.348;2024-02-14T12:14:00;5.28;;;2.03;;
70303;SDS011;57712;48.752;11.348;2024-02-14T12:16:29;6.43;;;2.42;;
70303;SDS011;57712;48.752;11.348;2024-02-14T12:19:06;6.30;;;2.00;;
70303;SDS011;57712;48.752;11.348;2024-02-14T12:21:37;5.95;;;1.90;;
70303;SDS011;57712;48.752;11.348;2024-02-14T12:24:07;5.60;;;1.97;;
70303;SDS011;57712;48.752;11.348;2024-02-14T12:26:36;7.05;;;2.20;;
70303;SDS011;57712;48.752;11.348;2024-02-14T12:29:04;5.93;;;2.42;;
70303;SDS011;57712;48.752;11.348;2024-02-14T12:31:33;5.80;;;1.77;;
70303;SDS011;57712;48.752;11.348;2024-02-14T12:34:00;5.93;;;1.88;;
70303;SDS011;57712;48.752;11.348;2024-02-14T12:36:29;6.07;;;2.00;;
70303;SDS011;57712;48.752;11.348;2024-02-14T12:38:56;6.78;;;2.65;;
70303;SDS011;57712;48.752;11.348;2024-02-14T12:41:22;10.02;;;2.00;;
70303;SDS011;57712;48.752;11.348;2024-02-14T12:43:59;5.07;;;1.65;;
70303;SDS011;57712;48.752;11.348;2024-02-14T12:46:27;6.07;;;1.77;;
70303;SDS011;57712;48.752;11.348;2024-02-14T12:48:54;6.57;;;1.93;;
70303;SDS011;57712;48.752;11.348;2024-02-14T12:51:21;5.07;;;1.50;;
70303;SDS011;57712;48.752;11.348;2024-02-14T12:53:48;6.97;;;2.42;;
70303;SDS011;57712;48.752;11.348;2024-02-14T12:56:15;5.63;;;1.90;;
70303;SDS011;57712;48.752;11.348;2024-02-14T12:58:41;4.35;;;1.38;;
70303;SDS011;57712;48.752;11.348;2024-02-14T13:01:09;6.57;;;1.70;;
70303;SDS011;57712;48.752;11.348;2024-02-14T13:03:37;5.68;;;1.83;;
70303;SDS011;57712;48.752;11.348;2024-02-14T13:06:04;5.65;;;1.80;;
70303;SDS011;57712;48.752;11.348;2024-02-14T13:08:31;5.00;;;1.60;;
70303;SDS011;57712;48.752;11.348;2024-02-14T13:10:59;6.10;;;1.88;;
70303;SDS011;57712;48.752;11.348;2024-02-14T13:13:25;6.47;;;1.73;;
70303;SDS011;57712;48.752;11.348;2024-02-14T13:15:52;8.20;;;2.03;;
70303;SDS011;57712;48.752;11.348;2024-02-14T13:18:19;4.75;;;1.73;;
70303;SDS011;57712;48.752;11.348;2024-02-14T13:20:46;4.60;;;1.50;;
70303;SDS011;57712;48.752;11.348;2024-02-14T13:23:13;5.05;;;1.67;;
70303;SDS011;57712;48.752;11.348;2024-02-14T13:25:41;5.97;;;1.80;;
70303;SDS011;57712;48.752;11.348;2024-02-14T13:28:07;6.47;;;1.77;;
70303;SDS011;57712;48.752;11.348;2024-02-14T13:30:34;6.05;;;1.92;;
70303;SDS011;57712;48.752;11.348;2024-02-14T13:33:04;5.45;;;1.70;;
70303;SDS011;57712;48.752;11.348;2024-02-14T13:35:31;5.85;;;1.90;;
70303;SDS011;57712;48.752;11.348;2024-02-14T13:37:58;6.83;;;1.80;;
70303;SDS011;57712;48.752;11.348;2024-02-14T13:40:25;5.10;;;1.63;;
70303;SDS011;57712;48.752;11.348;2024-02-14T13:42:51;6.72;;;2.13;;
70303;SDS011;57712;48.752;11.348;2024-02-14T13:45:18;7.43;;;2.50;;
70303;SDS011;57712;48.752;11.348;2024-02-14T13:47:45;5.88;;;2.70;;
70303;SDS011;57712;48.752;11.348;2024-02-14T13:50:13;7.97;;;2.90;;
70303;SDS011;57712;48.752;11.348;2024-02-14T13:52:39;8.15;;;2.85;;
70303;SDS011;57712;48.752;11.348;2024-02-14T13:55:06;9.15;;;3.38;;
70303;SDS011;57712;48.752;11.348;2024-02-14T13:57:36;6.57;;;2.88;;
70303;SDS011;57712;48.752;11.348;2024-02-14T14:00:05;6.40;;;2.40;;
70303;SDS011;57712;48.752;11.348;2024-02-14T14:02:36;9.87;;;3.27;;
70303;SDS011;57712;48.752;11.348;2024-02-14T14:05:08;7.65;;;2.80;;
70303;SDS011;57712;48.752;11.348;2024-02-14T14:07:41;7.07;;;2.70;;
70303;SDS011;57712;48.752;11.348;2024-02-14T14:10:23;9.02;;;2.88;;
70303;SDS011;57712;48.752;11.348;2024-02-14T14:12:53;6.43;;;2.80;;
70303;SDS011;57712;48.752;11.348;2024-02-14T14:15:20;7.53;;;2.53;;
70303;SDS011;57712;48.752;11.348;2024-02-14T14:17:49;9.27;;;3.50;;
70303;SDS011;57712;48.752;11.348;2024-02-14T14:20:17;9.23;;;3.38;;
70303;SDS011;57712;48.752;11.348;2024-02-14T14:22:46;11.68;;;4.35;;
70303;SDS011;57712;48.752;11.348;2024-02-14T14:25:12;17.35;;;5.68;;
70303;SDS011;57712;48.752;11.348;2024-02-14T14:27:39;15.40;;;6.20;;
70303;SDS011;57712;48.752;11.348;2024-02-14T14:30:06;12.90;;;5.60;;
70303;SDS011;57712;48.752;11.348;2024-02-14T14:32:33;10.23;;;3.75;;